sensor_id;sensor_type;location;lat;lon;timestamp;P1;durP1;ratioP1;P2;durP2;ratioP2
17504;SDS011;8870;50.950;11.762;2023-09-19T00:01:30;2.20;;;0.80;;
17504;SDS011;8870;50.950;11.762;2023-09-19T00:06:49;1.88;;;0.90;;
17504;SDS011;8870;50.950;11.762;2023-09-19T00:12:24;1.88;;;0.77;;
17504;SDS011;8870;50.950;11.762;2023-09-19T00:17:44;1.52;;;0.77;;
17504;SDS011;8870;50.950;11.762;2023-09-19T00:23:17;1.27;;;0.63;;
17504;SDS011;8870;50.950;11.762;2023-09-19T00:28:35;1.55;;;0.60;;
17504;SDS011;8870;50.950;11.762;2023-09-19T00:34:08;2.10;;;0.70;;
17504;SDS011;8870;50.950;11.762;2023-09-19T00:39:27;0.77;;;0.55;;
17504;SDS011;8870;50.950;11.762;2023-09-19T00:44:59;1.27;;;0.63;;
17504;SDS011;8870;50.950;11.762;2023-09-19T00:50:21;0.98;;;0.50;;
17504;SDS011;8870;50.950;11.762;2023-09-19T00:55:56;0.95;;;0.63;;
17504;SDS011;8870;50.950;11.762;2023-09-19T01:01:15;0.88;;;0.63;;
17504;SDS011;8870;50.950;11.762;2023-09-19T01:06:49;0.98;;;0.68;;
17504;SDS011;8870;50.950;11.762;2023-09-19T01:12:08;1.85;;;0.75;;
17504;SDS011;8870;50.950;11.762;2023-09-19T01:17:46;1.65;;;0.65;;
17504;SDS011;8870;50.950;11.762;2023-09-19T01:23:14;2.05;;;0.70;;
17504;SDS011;8870;50.950;11.762;2023-09-19T01:28:53;1.70;;;0.50;;
17504;SDS011;8870;50.950;11.762;2023-09-19T01:34:23;1.27;;;0.50;;
17504;SDS011;8870;50.950;11.762;2023-09-19T01:40:00;1.48;;;0.60;;
17504;SDS011;8870;50.950;11.762;2023-09-19T01:45:37;1.70;;;0.65;;
17504;SDS011;8870;50.950;11.762;2023-09-19T01:51:20;0.98;;;0.40;;
17504;SDS011;8870;50.950;11.762;2023-09-19T01:56:48;1.10;;;0.50;;
17504;SDS011;8870;50.950;11.762;2023-09-19T02:02:32;1.45;;;0.40;;
17504;SDS011;8870;50.950;11.762;2023-09-19T02:07:55;1.58;;;0.60;;
17504;SDS011;8870;50.950;11.762;2023-09-19T02:13:27;1.52;;;0.50;;
17504;SDS011;8870;50.950;11.762;2023-09-19T02:18:46;0.63;;;0.50;;
17504;SDS011;8870;50.950;11.762;2023-09-19T02:24:21;1.25;;;0.70;;
17504;SDS011;8870;50.950;11.762;2023-09-19T02:29:41;0.77;;;0.45;;
17504;SDS011;8870;50.950;11.762;2023-09-19T02:35:14;2.30;;;0.43;;
17504;SDS011;8870;50.950;11.762;2023-09-19T02:40:38;0.75;;;0.40;;
17504;SDS011;8870;50.950;11.762;2023-09-19T02:46:11;1.25;;;0.50;;
17504;SDS011;8870;50.950;11.762;2023-09-19T02:51:43;1.45;;;0.57;;
17504;SDS011;8870;50.950;11.762;2023-09-19T02:57:05;1.00;;;0.50;;
17504;SDS011;8870;50.950;11.762;2023-09-19T03:02:39;0.90;;;0.52;;
17504;SDS011;8870;50.950;11.762;2023-09-19T03:07:59;1.05;;;0.50;;
17504;SDS011;8870;50.950;11.762;2023-09-19T03:13:34;2.67;;;0.50;;
17504;SDS011;8870;50.950;11.762;2023-09-19T03:18:54;1.27;;;0.60;;
17504;SDS011;8870;50.950;11.762;2023-09-19T03:24:27;1.13;;;0.57;;
17504;SDS011;8870;50.950;11.762;2023-09-19T03:29:49;1.23;;;0.55;;
17504;SDS011;8870;50.950;11.762;2023-09-19T03:35:23;1.30;;;0.52;;
17504;SDS011;8870;50.950;11.762;2023-09-19T03:40:43;1.00;;;0.70;;
17504;SDS011;8870;50.950;11.762;2023-09-19T03:46:19;1.10;;;0.60;;
17504;SDS011;8870;50.950;11.762;2023-09-19T03:51:52;1.58;;;0.60;;
17504;SDS011;8870;50.950;11.762;2023-09-19T03:57:10;1.90;;;0.55;;
17504;SDS011;8870;50.950;11.762;2023-09-19T04:02:45;2.60;;;0.60;;
17504;SDS011;8870;50.950;11.762;2023-09-19T04:08:05;1.73;;;0.52;;
17504;SDS011;8870;50.950;11.762;2023-09-19T04:13:37;0.50;;;0.50;;
17504;SDS011;8870;50.950;11.762;2023-09-19T04:18:59;0.95;;;0.57;;
17504;SDS011;8870;50.950;11.762;2023-09-19T04:24:30;0.55;;;0.50;;
17504;SDS011;8870;50.950;11.762;2023-09-19T04:29:48;2.28;;;0.70;;
17504;SDS011;8870;50.950;11.762;2023-09-19T04:35:22;0.68;;;0.50;;
17504;SDS011;8870;50.950;11.762;2023-09-19T04:40:41;0.55;;;0.45;;
17504;SDS011;8870;50.950;11.762;2023-09-19T04:46:13;1.92;;;0.60;;
17504;SDS011;8870;50.950;11.762;2023-09-19T04:51:35;0.50;;;0.50;;
17504;SDS011;8870;50.950;11.762;2023-09-19T04:57:08;1.35;;;0.63;;
17504;SDS011;8870;50.950;11.762;2023-09-19T05:02:29;1.65;;;0.50;;
17504;SDS011;8870;50.950;11.762;2023-09-19T05:08:04;1.23;;;0.50;;
17504;SDS011;8870;50.950;11.762;2023-09-19T05:13:24;1.08;;;0.63;;
17504;SDS011;8870;50.950;11.762;2023-09-19T05:18:55;1.02;;;0.50;;
17504;SDS011;8870;50.950;11.762;2023-09-19T05:24:22;1.50;;;0.50;;
17504;SDS011;8870;50.950;11.762;2023-09-19T05:29:48;1.33;;;0.50;;
17504;SDS011;8870;50.950;11.762;2023-09-19T05:35:07;1.58;;;0.60;;
17504;SDS011;8870;50.950;11.762;2023-09-19T05:40:42;1.63;;;0.50;;
17504;SDS011;8870;50.950;11.762;2023-09-19T05:46:07;1.35;;;0.60;;
17504;SDS011;8870;50.950;11.762;2023-09-19T05:51:39;1.65;;;0.68;;
17504;SDS011;8870;50.950;11.762;2023-09-19T05:57:00;0.50;;;0.50;;
17504;SDS011;8870;50.950;11.762;2023-09-19T06:02:34;1.58;;;0.60;;
17504;SDS011;8870;50.950;11.762;2023-09-19T06:07:53;1.08;;;0.50;;
17504;SDS011;8870;50.950;11.762;2023-09-19T06:13:32;0.88;;;0.50;;
17504;SDS011;8870;50.950;11.762;2023-09-19T06:18:50;1.38;;;0.57;;
17504;SDS011;8870;50.950;11.762;2023-09-19T06:24:22;1.25;;;0.52;;
17504;SDS011;8870;50.950;11.762;2023-09-19T06:29:43;1.48;;;0.75;;
17504;SDS011;8870;50.950;11.762;2023-09-19T06:35:14;1.38;;;0.50;;
17504;SDS011;8870;50.950;11.762;2023-09-19T06:40:33;1.02;;;0.55;;
17504;SDS011;8870;50.950;11.762;2023-09-19T06:46:09;1.08;;;0.50;;
17504;SDS011;8870;50.950;11.762;2023-09-19T06:51:27;1.48;;;0.80;;
17504;SDS011;8870;50.950;11.762;2023-09-19T06:56:58;1.15;;;0.52;;
17504;SDS011;8870;50.950;11.762;2023-09-19T07:02:19;0.93;;;0.60;;
17504;SDS011;8870;50.950;11.762;2023-09-19T07:07:50;1.08;;;0.45;;
17504;SDS011;8870;50.950;11.762;2023-09-19T07:13:09;1.70;;;0.60;;
17504;SDS011;8870;50.950;11.762;2023-09-19T07:18:44;1.50;;;0.60;;
17504;SDS011;8870;50.950;11.762;2023-09-19T07:24:02;1.23;;;0.45;;
17504;SDS011;8870;50.950;11.762;2023-09-19T07:29:35;0.68;;;0.45;;
17504;SDS011;8870;50.950;11.762;2023-09-19T07:35:01;0.55;;;0.40;;
17504;SDS011;8870;50.950;11.762;2023-09-19T07:40:33;2.50;;;0.60;;
17504;SDS011;8870;50.950;11.762;2023-09-19T07:46:02;0.82;;;0.50;;
17504;SDS011;8870;50.950;11.762;2023-09-19T07:51:37;1.38;;;0.55;;
17504;SDS011;8870;50.950;11.762;2023-09-19T07:56:55;0.70;;;0.40;;
17504;SDS011;8870;50.950;11.762;2023-09-19T08:02:27;1.15;;;0.50;;
17504;SDS011;8870;50.950;11.762;2023-09-19T08:07:48;0.98;;;0.40;;
17504;SDS011;8870;50.950;11.762;2023-09-19T08:13:20;0.95;;;0.50;;
17504;SDS011;8870;50.950;11.762;2023-09-19T08:18:38;1.33;;;0.40;;
17504;SDS011;8870;50.950;11.762;2023-09-19T08:24:13;1.58;;;0.40;;
17504;SDS011;8870;50.950;11.762;2023-09-19T08:29:31;0.93;;;0.57;;
17504;SDS011;8870;50.950;11.762;2023-09-19T08:35:05;0.75;;;0.40;;
17504;SDS011;8870;50.950;11.762;2023-09-19T08:40:27;2.00;;;0.50;;
17504;SDS011;8870;50.950;11.762;2023-09-19T08:46:03;1.33;;;0.40;;
17504;SDS011;8870;50.950;11.762;2023-09-19T08:51:42;1.52;;;0.60;;
17504;SDS011;8870;50.950;11.762;2023-09-19T08:57:05;1.58;;;0.60;;
17504;SDS011;8870;50.950;11.762;2023-09-19T09:02:43;2.58;;;0.50;;
17504;SDS011;8870;50.950;11.762;2023-09-19T09:08:05;1.65;;;0.68;;
17504;SDS011;8870;50.950;11.762;2023-09-19T09:13:39;1.08;;;0.57;;
17504;SDS011;8870;50.950;11.762;2023-09-19T09:18:57;2.03;;;0.52;;
17504;SDS011;8870;50.950;11.762;2023-09-19T09:24:29;1.17;;;0.43;;
17504;SDS011;8870;50.950;11.762;2023-09-19T09:29:52;1.08;;;0.60;;
17504;SDS011;8870;50.950;11.762;2023-09-19T09:35:25;1.23;;;0.60;;
17504;SDS011;8870;50.950;11.762;2023-09-19T09:40:47;1.10;;;0.70;;
17504;SDS011;8870;50.950;11.762;2023-09-19T09:46:31;1.48;;;0.60;;
17504;SDS011;8870;50.950;11.762;2023-09-19T09:52:45;1.55;;;0.80;;
17504;SDS011;8870;50.950;11.762;2023-09-19T09:58:17;4.32;;;0.70;;
17504;SDS011;8870;50.950;11.762;2023-09-19T10:03:53;3.33;;;0.70;;
17504;SDS011;8870;50.950;11.762;2023-09-19T10:09:15;0.57;;;0.50;;
17504;SDS011;8870;50.950;11.762;2023-09-19T10:14:57;2.83;;;0.70;;
17504;SDS011;8870;50.950;11.762;2023-09-19T10:20:24;1.58;;;0.70;;
17504;SDS011;8870;50.950;11.762;2023-09-19T10:26:00;0.65;;;0.50;;
17504;SDS011;8870;50.950;11.762;2023-09-19T10:31:19;0.90;;;0.57;;
17504;SDS011;8870;50.950;11.762;2023-09-19T10:36:56;1.88;;;0.70;;
17504;SDS011;8870;50.950;11.762;2023-09-19T10:47:51;2.03;;;0.50;;
17504;SDS011;8870;50.950;11.762;2023-09-19T10:53:26;1.65;;;0.70;;
17504;SDS011;8870;50.950;11.762;2023-09-19T10:58:46;1.23;;;0.57;;
17504;SDS011;8870;50.950;11.762;2023-09-19T11:04:22;1.27;;;0.65;;
17504;SDS011;8870;50.950;11.762;2023-09-19T11:09:49;1.40;;;0.70;;
17504;SDS011;8870;50.950;11.762;2023-09-19T11:21:40;2.03;;;0.88;;
17504;SDS011;8870;50.950;11.762;2023-09-19T11:27:32;1.98;;;0.80;;
17504;SDS011;8870;50.950;11.762;2023-09-19T11:39:00;1.30;;;0.88;;
17504;SDS011;8870;50.950;11.762;2023-09-19T11:44:36;2.45;;;0.65;;
17504;SDS011;8870;50.950;11.762;2023-09-19T11:50:07;1.33;;;0.90;;
17504;SDS011;8870;50.950;11.762;2023-09-19T11:55:27;1.33;;;0.80;;
17504;SDS011;8870;50.950;11.762;2023-09-19T12:01:03;1.08;;;0.88;;
17504;SDS011;8870;50.950;11.762;2023-09-19T12:06:29;1.52;;;0.75;;
17504;SDS011;8870;50.950;11.762;2023-09-19T12:12:06;1.45;;;0.95;;
17504;SDS011;8870;50.950;11.762;2023-09-19T12:17:37;1.42;;;0.80;;
17504;SDS011;8870;50.950;11.762;2023-09-19T12:23:12;1.90;;;1.00;;
17504;SDS011;8870;50.950;11.762;2023-09-19T12:28:31;1.42;;;1.00;;
17504;SDS011;8870;50.950;11.762;2023-09-19T12:34:18;2.40;;;0.90;;
17504;SDS011;8870;50.950;11.762;2023-09-19T12:39:41;1.08;;;0.90;;
17504;SDS011;8870;50.950;11.762;2023-09-19T12:45:15;1.27;;;0.90;;
17504;SDS011;8870;50.950;11.762;2023-09-19T12:50:40;1.10;;;0.80;;
17504;SDS011;8870;50.950;11.762;2023-09-19T12:56:39;0.98;;;0.80;;
17504;SDS011;8870;50.950;11.762;2023-09-19T13:02:03;1.10;;;0.80;;
17504;SDS011;8870;50.950;11.762;2023-09-19T13:07:44;1.40;;;0.75;;
17504;SDS011;8870;50.950;11.762;2023-09-19T13:18:51;0.98;;;0.80;;
17504;SDS011;8870;50.950;11.762;2023-09-19T13:24:20;0.90;;;0.80;;
17504;SDS011;8870;50.950;11.762;2023-09-19T13:29:54;1.92;;;1.00;;
17504;SDS011;8870;50.950;11.762;2023-09-19T13:35:13;1.77;;;1.00;;
17504;SDS011;8870;50.950;11.762;2023-09-19T13:40:48;2.85;;;0.88;;
17504;SDS011;8870;50.950;11.762;2023-09-19T13:46:14;1.10;;;1.00;;
17504;SDS011;8870;50.950;11.762;2023-09-19T13:51:48;4.00;;;1.10;;
17504;SDS011;8870;50.950;11.762;2023-09-19T13:57:10;1.38;;;1.00;;
17504;SDS011;8870;50.950;11.762;2023-09-19T14:02:42;3.15;;;1.00;;
17504;SDS011;8870;50.950;11.762;2023-09-19T14:08:04;3.85;;;1.00;;
17504;SDS011;8870;50.950;11.762;2023-09-19T14:13:38;2.33;;;1.10;;
17504;SDS011;8870;50.950;11.762;2023-09-19T14:19:05;1.45;;;1.00;;
17504;SDS011;8870;50.950;11.762;2023-09-19T14:24:37;2.00;;;1.10;;
17504;SDS011;8870;50.950;11.762;2023-09-19T14:29:58;1.92;;;1.10;;
17504;SDS011;8870;50.950;11.762;2023-09-19T14:35:30;1.17;;;0.85;;
17504;SDS011;8870;50.950;11.762;2023-09-19T14:40:48;3.10;;;1.08;;
17504;SDS011;8870;50.950;11.762;2023-09-19T14:46:31;1.95;;;1.00;;
17504;SDS011;8870;50.950;11.762;2023-09-19T14:51:49;2.13;;;1.00;;
17504;SDS011;8870;50.950;11.762;2023-09-19T14:57:20;2.35;;;1.10;;
17504;SDS011;8870;50.950;11.762;2023-09-19T15:02:41;1.83;;;1.02;;
17504;SDS011;8870;50.950;11.762;2023-09-19T15:08:13;2.95;;;0.95;;
17504;SDS011;8870;50.950;11.762;2023-09-19T15:13:32;1.50;;;1.00;;
17504;SDS011;8870;50.950;11.762;2023-09-19T15:19:07;1.83;;;0.98;;
17504;SDS011;8870;50.950;11.762;2023-09-19T15:24:25;1.63;;;1.00;;
17504;SDS011;8870;50.950;11.762;2023-09-19T15:29:57;4.10;;;1.08;;
17504;SDS011;8870;50.950;11.762;2023-09-19T15:35:20;2.88;;;1.13;;
17504;SDS011;8870;50.950;11.762;2023-09-19T15:40:51;1.75;;;1.00;;
17504;SDS011;8870;50.950;11.762;2023-09-19T15:46:09;1.67;;;1.10;;
17504;SDS011;8870;50.950;11.762;2023-09-19T15:51:43;1.65;;;1.00;;
17504;SDS011;8870;50.950;11.762;2023-09-19T15:57:02;2.45;;;1.00;;
17504;SDS011;8870;50.950;11.762;2023-09-19T16:02:34;2.80;;;1.10;;
17504;SDS011;8870;50.950;11.762;2023-09-19T16:07:55;2.65;;;1.30;;
17504;SDS011;8870;50.950;11.762;2023-09-19T16:13:26;1.50;;;0.90;;
17504;SDS011;8870;50.950;11.762;2023-09-19T16:18:46;2.60;;;1.00;;
17504;SDS011;8870;50.950;11.762;2023-09-19T16:24:21;2.00;;;1.10;;
17504;SDS011;8870;50.950;11.762;2023-09-19T16:29:40;1.98;;;1.10;;
17504;SDS011;8870;50.950;11.762;2023-09-19T16:35:12;1.63;;;1.00;;
17504;SDS011;8870;50.950;11.762;2023-09-19T16:40:33;5.47;;;1.30;;
17504;SDS011;8870;50.950;11.762;2023-09-19T16:46:06;3.88;;;1.25;;
17504;SDS011;8870;50.950;11.762;2023-09-19T16:51:26;2.67;;;1.23;;
17504;SDS011;8870;50.950;11.762;2023-09-19T16:57:02;2.95;;;1.10;;
17504;SDS011;8870;50.950;11.762;2023-09-19T17:02:21;3.13;;;1.10;;
17504;SDS011;8870;50.950;11.762;2023-09-19T17:07:52;2.65;;;1.17;;
17504;SDS011;8870;50.950;11.762;2023-09-19T17:13:13;3.83;;;1.00;;
17504;SDS011;8870;50.950;11.762;2023-09-19T17:18:45;3.38;;;1.20;;
17504;SDS011;8870;50.950;11.762;2023-09-19T17:24:08;2.20;;;1.17;;
17504;SDS011;8870;50.950;11.762;2023-09-19T17:29:41;3.85;;;1.08;;
17504;SDS011;8870;50.950;11.762;2023-09-19T17:35:00;2.83;;;1.10;;
17504;SDS011;8870;50.950;11.762;2023-09-19T17:40:26;3.42;;;1.20;;
17504;SDS011;8870;50.950;11.762;2023-09-19T17:45:53;2.72;;;1.27;;
17504;SDS011;8870;50.950;11.762;2023-09-19T17:51:12;2.17;;;1.10;;
17504;SDS011;8870;50.950;11.762;2023-09-19T17:56:45;2.75;;;1.10;;
17504;SDS011;8870;50.950;11.762;2023-09-19T18:02:06;3.63;;;1.05;;
17504;SDS011;8870;50.950;11.762;2023-09-19T18:07:39;2.10;;;1.00;;
17504;SDS011;8870;50.950;11.762;2023-09-19T18:13:02;1.67;;;1.10;;
17504;SDS011;8870;50.950;11.762;2023-09-19T18:18:37;3.03;;;1.30;;
17504;SDS011;8870;50.950;11.762;2023-09-19T18:24:12;2.42;;;1.35;;
17504;SDS011;8870;50.950;11.762;2023-09-19T18:29:31;3.60;;;1.40;;
17504;SDS011;8870;50.950;11.762;2023-09-19T18:35:08;2.40;;;1.27;;
17504;SDS011;8870;50.950;11.762;2023-09-19T18:40:27;3.50;;;1.17;;
17504;SDS011;8870;50.950;11.762;2023-09-19T18:46:00;2.40;;;1.20;;
17504;SDS011;8870;50.950;11.762;2023-09-19T18:51:22;4.43;;;1.10;;
17504;SDS011;8870;50.950;11.762;2023-09-19T18:56:54;2.15;;;1.13;;
17504;SDS011;8870;50.950;11.762;2023-09-19T19:02:13;3.40;;;1.20;;
17504;SDS011;8870;50.950;11.762;2023-09-19T19:07:47;2.30;;;1.10;;
17504;SDS011;8870;50.950;11.762;2023-09-19T19:13:06;2.53;;;1.20;;
17504;SDS011;8870;50.950;11.762;2023-09-19T19:18:38;3.17;;;1.20;;
17504;SDS011;8870;50.950;11.762;2023-09-19T19:24:13;2.95;;;1.20;;
17504;SDS011;8870;50.950;11.762;2023-09-19T19:29:35;2.03;;;1.30;;
17504;SDS011;8870;50.950;11.762;2023-09-19T19:35:07;2.63;;;1.20;;
17504;SDS011;8870;50.950;11.762;2023-09-19T19:40:28;4.28;;;1.10;;
17504;SDS011;8870;50.950;11.762;2023-09-19T19:46:00;3.08;;;1.02;;
17504;SDS011;8870;50.950;11.762;2023-09-19T19:51:22;2.00;;;1.00;;
17504;SDS011;8870;50.950;11.762;2023-09-19T19:56:57;2.47;;;1.30;;
17504;SDS011;8870;50.950;11.762;2023-09-19T20:02:16;2.42;;;1.20;;
17504;SDS011;8870;50.950;11.762;2023-09-19T20:07:46;1.85;;;1.05;;
17504;SDS011;8870;50.950;11.762;2023-09-19T20:13:08;3.15;;;1.10;;
17504;SDS011;8870;50.950;11.762;2023-09-19T20:18:39;1.52;;;1.05;;
17504;SDS011;8870;50.950;11.762;2023-09-19T20:24:11;3.80;;;1.20;;
17504;SDS011;8870;50.950;11.762;2023-09-19T20:29:37;2.53;;;1.05;;
17504;SDS011;8870;50.950;11.762;2023-09-19T20:35:09;2.47;;;1.10;;
17504;SDS011;8870;50.950;11.762;2023-09-19T20:40:29;1.95;;;0.98;;
17504;SDS011;8870;50.950;11.762;2023-09-19T20:46:04;2.50;;;0.93;;
17504;SDS011;8870;50.950;11.762;2023-09-19T20:51:22;2.58;;;1.00;;
17504;SDS011;8870;50.950;11.762;2023-09-19T20:56:57;1.25;;;0.90;;
17504;SDS011;8870;50.950;11.762;2023-09-19T21:02:18;2.47;;;1.10;;
17504;SDS011;8870;50.950;11.762;2023-09-19T21:07:50;2.08;;;0.90;;
17504;SDS011;8870;50.950;11.762;2023-09-19T21:13:08;2.72;;;1.30;;
17504;SDS011;8870;50.950;11.762;2023-09-19T21:18:43;2.47;;;1.05;;
17504;SDS011;8870;50.950;11.762;2023-09-19T21:24:16;2.85;;;0.90;;
17504;SDS011;8870;50.950;11.762;2023-09-19T21:29:36;1.45;;;0.90;;
17504;SDS011;8870;50.950;11.762;2023-09-19T21:35:11;2.00;;;0.90;;
17504;SDS011;8870;50.950;11.762;2023-09-19T21:40:30;1.48;;;1.00;;
17504;SDS011;8870;50.950;11.762;2023-09-19T21:46:03;1.20;;;0.80;;
17504;SDS011;8870;50.950;11.762;2023-09-19T21:51:23;3.58;;;1.10;;
17504;SDS011;8870;50.950;11.762;2023-09-19T21:56:56;2.95;;;0.85;;
17504;SDS011;8870;50.950;11.762;2023-09-19T22:02:14;3.35;;;0.85;;
17504;SDS011;8870;50.950;11.762;2023-09-19T22:07:47;1.92;;;1.00;;
17504;SDS011;8870;50.950;11.762;2023-09-19T22:13:06;2.65;;;1.10;;
17504;SDS011;8870;50.950;11.762;2023-09-19T22:18:42;2.97;;;1.00;;
17504;SDS011;8870;50.950;11.762;2023-09-19T22:24:17;1.88;;;0.90;;
17504;SDS011;8870;50.950;11.762;2023-09-19T22:29:37;1.90;;;0.90;;
17504;SDS011;8870;50.950;11.762;2023-09-19T22:35:08;2.80;;;0.90;;
17504;SDS011;8870;50.950;11.762;2023-09-19T22:40:30;2.47;;;0.85;;
17504;SDS011;8870;50.950;11.762;2023-09-19T22:46:05;1.83;;;1.00;;
17504;SDS011;8870;50.950;11.762;2023-09-19T22:51:26;2.75;;;0.90;;
17504;SDS011;8870;50.950;11.762;2023-09-19T22:57:06;2.35;;;0.88;;
17504;SDS011;8870;50.950;11.762;2023-09-19T23:02:26;1.33;;;0.90;;
17504;SDS011;8870;50.950;11.762;2023-09-19T23:08:00;1.63;;;0.90;;
17504;SDS011;8870;50.950;11.762;2023-09-19T23:13:24;2.17;;;0.85;;
17504;SDS011;8870;50.950;11.762;2023-09-19T23:19:00;1.63;;;0.80;;
17504;SDS011;8870;50.950;11.762;2023-09-19T23:24:37;1.20;;;0.80;;
17504;SDS011;8870;50.950;11.762;2023-09-19T23:29:58;1.73;;;0.95;;
17504;SDS011;8870;50.950;11.762;2023-09-19T23:35:32;2.25;;;1.00;;
17504;SDS011;8870;50.950;11.762;2023-09-19T23:40:53;1.77;;;0.90;;
17504;SDS011;8870;50.950;11.762;2023-09-19T23:46:28;1.50;;;0.90;;
17504;SDS011;8870;50.950;11.762;2023-09-19T23:51:48;1.80;;;0.85;;
17504;SDS011;8870;50.950;11.762;2023-09-19T23:57:20;1.60;;;0.90;;
